createdAt,value
2023-06-07T00:00:12.968Z,0.90
2023-06-07T00:13:13.000Z,0.80
2023-06-07T00:26:13.003Z,0.70
2023-06-07T00:39:12.990Z,0.45
2023-06-07T00:52:13.028Z,0.70
2023-06-07T01:05:13.058Z,0.70
2023-06-07T01:18:13.110Z,0.60
2023-06-07T01:31:14.111Z,0.50
2023-06-07T01:44:13.097Z,0.50
2023-06-07T01:57:13.126Z,0.40
2023-06-07T02:10:13.204Z,0.40
2023-06-07T02:23:13.219Z,0.40
2023-06-07T02:36:13.358Z,0.40
2023-06-07T02:49:13.340Z,0.50
2023-06-07T03:02:13.416Z,0.30
2023-06-07T03:15:13.412Z,0.30
2023-06-07T03:28:13.450Z,0.40
2023-06-07T03:41:13.474Z,0.30
2023-06-07T03:54:13.492Z,0.40
2023-06-07T04:07:13.571Z,0.40
2023-06-07T04:20:13.572Z,0.40
2023-06-07T04:33:13.761Z,0.30
2023-06-07T04:46:13.673Z,0.40
2023-06-07T04:59:13.665Z,0.30
2023-06-07T05:12:13.705Z,0.30
2023-06-07T05:25:13.757Z,0.30
2023-06-07T05:38:13.709Z,0.30
2023-06-07T05:51:13.771Z,0.20
2023-06-07T06:04:13.794Z,0.30
2023-06-07T06:17:13.844Z,0.60
2023-06-07T06:30:13.850Z,1.00
2023-06-07T06:43:13.900Z,1.70
2023-06-07T06:56:13.912Z,1.65
2023-06-07T07:09:13.926Z,1.50
2023-06-07T07:22:13.946Z,1.70
2023-06-07T07:35:14.108Z,1.50
2023-06-07T07:48:13.931Z,1.60
2023-06-07T08:01:13.986Z,1.50
2023-06-07T08:14:13.984Z,2.10
2023-06-07T08:27:13.987Z,1.30
2023-06-07T08:40:14.278Z,1.30
2023-06-07T08:53:13.992Z,1.20
2023-06-07T09:06:13.986Z,1.10
2023-06-07T09:19:13.969Z,1.10
2023-06-07T09:32:13.982Z,1.10
2023-06-07T09:45:14.071Z,0.90
2023-06-07T09:58:14.103Z,0.80
2023-06-07T10:11:14.060Z,0.90
2023-06-07T10:24:14.313Z,0.80
2023-06-07T10:37:14.077Z,0.90
2023-06-07T10:50:14.127Z,0.90
2023-06-07T11:03:14.283Z,0.80
2023-06-07T11:16:14.179Z,0.80
2023-06-07T11:29:14.206Z,0.80
2023-06-07T11:42:14.156Z,0.80
2023-06-07T11:55:14.201Z,0.80
2023-06-07T12:08:14.249Z,0.60
2023-06-07T12:21:14.247Z,0.80
2023-06-07T12:34:14.255Z,0.70
2023-06-07T12:47:14.433Z,0.70
2023-06-07T13:00:14.404Z,0.70
2023-06-07T13:13:14.451Z,0.70
2023-06-07T13:26:14.420Z,0.80
2023-06-07T13:39:14.509Z,6.60
2023-06-07T13:52:14.587Z,10.00
2023-06-07T14:05:14.636Z,7.40
2023-06-07T14:18:14.555Z,6.10
2023-06-07T14:31:14.597Z,5.60
2023-06-07T14:44:14.570Z,4.70
2023-06-07T14:57:14.633Z,4.10
2023-06-07T15:10:14.641Z,3.40
2023-06-07T15:23:14.720Z,2.90
2023-06-07T15:36:14.727Z,2.60
2023-06-07T15:49:14.768Z,2.30
2023-06-07T16:02:14.717Z,2.20
2023-06-07T16:15:14.734Z,1.80
2023-06-07T16:28:14.770Z,1.70
2023-06-07T16:41:14.729Z,1.60
2023-06-07T16:54:14.763Z,1.60
2023-06-07T17:07:14.749Z,1.50
2023-06-07T17:20:14.781Z,1.50
2023-06-07T17:33:14.828Z,1.40
2023-06-07T17:46:14.840Z,1.20
2023-06-07T17:59:14.860Z,1.30
2023-06-07T18:12:14.789Z,1.40
2023-06-07T18:25:14.842Z,1.40
2023-06-07T18:38:14.796Z,1.80
2023-06-07T18:51:14.845Z,1.90
2023-06-07T19:04:14.863Z,1.70
2023-06-07T19:17:14.907Z,2.00
2023-06-07T19:30:14.801Z,1.80
2023-06-07T19:43:14.855Z,1.90
2023-06-07T19:56:14.992Z,1.80
2023-06-07T20:09:14.987Z,2.10
2023-06-07T20:22:17.501Z,2.00
2023-06-07T20:35:15.026Z,2.00
2023-06-07T20:48:15.058Z,2.00
2023-06-07T21:01:15.052Z,1.80
2023-06-07T21:14:16.182Z,1.80
2023-06-07T21:27:16.447Z,1.80
2023-06-07T21:40:15.041Z,1.60
2023-06-07T21:53:15.099Z,1.60
2023-06-07T22:06:15.101Z,1.60
2023-06-07T22:19:14.940Z,1.40
2023-06-07T22:32:14.940Z,1.60
2023-06-07T22:45:14.926Z,1.30
2023-06-07T22:58:14.902Z,1.30
2023-06-07T23:11:14.925Z,1.10
2023-06-07T23:24:14.933Z,1.10
2023-06-07T23:37:14.916Z,1.30
2023-06-07T23:50:14.922Z,1.10
